Time;durP1;ratioP1;P1;durP2;ratioP2;P2;SDS_P1;SDS_P2;PMS_P1;PMS_P2;Temp;Humidity;BMP_temperature;BMP_pressure;BME280_temperature;BME280_humidity;BME280_pressure;Samples;Min_cycle;Max_cycle;Signal;HPM_P1;HPM_P2
2022/07/25 00:01:12;;;;;;;6.10;3.70;;;;;;;21.70;50.06;98915.56;4484542;31;20123;-73
2022/07/25 00:03:40;;;;;;;3.47;3.17;;;;;;;21.61;50.27;98907.75;4485995;32;20123;-73
2022/07/25 00:06:08;;;;;;;5.32;3.20;;;;;;;21.60;50.18;98916.81;4486249;31;20165;-73
2022/07/25 00:08:44;;;;;;;3.78;3.17;;;;;;;21.54;50.63;98916.78;4486384;32;20080;-73
2022/07/25 00:11:11;;;;;;;5.87;3.72;;;;;;;21.43;50.90;98912.84;4486305;31;20092;-73
2022/07/25 00:13:38;;;;;;;4.20;3.12;;;;;;;21.31;51.16;98906.50;4486254;31;20115;-73
2022/07/25 00:16:05;;;;;;;7.37;3.28;;;;;;;21.35;51.16;98908.56;4486620;31;20123;-73
2022/07/25 00:18:33;;;;;;;10.20;3.70;;;;;;;21.28;51.31;98907.72;4486336;32;20763;-73
2022/07/25 00:21:00;;;;;;;4.37;3.62;;;;;;;21.26;51.42;98907.91;4486199;31;20108;-73
2022/07/25 00:23:28;;;;;;;3.85;3.28;;;;;;;21.22;51.52;98905.88;4486050;32;20097;-73
2022/07/25 00:25:55;;;;;;;4.00;3.22;;;;;;;21.15;51.77;98897.03;4486151;31;20180;-73
2022/07/25 00:28:22;;;;;;;9.43;3.58;;;;;;;21.03;52.16;98894.97;4486284;31;20508;-73
2022/07/25 00:30:49;;;;;;;4.75;3.72;;;;;;;21.06;52.13;98894.56;4486264;32;20089;-73
2022/07/25 00:33:16;;;;;;;6.55;3.12;;;;;;;21.01;52.37;98897.00;4486111;31;20112;-73
2022/07/25 00:35:43;;;;;;;7.28;3.80;;;;;;;20.91;52.59;98896.59;4486119;31;20164;-73
2022/07/25 00:38:13;;;;;;;4.82;3.22;;;;;;;20.86;52.73;98901.69;4486176;32;20084;-73
2022/07/25 00:40:40;;;;;;;6.05;3.42;;;;;;;20.81;52.84;98904.13;4486087;32;20096;-73
2022/07/25 00:43:07;;;;;;;4.30;3.70;;;;;;;20.77;52.86;98900.22;4486174;31;20101;-73
2022/07/25 00:45:34;;;;;;;3.65;3.33;;;;;;;20.76;52.95;98898.56;4485977;32;20163;-73
2022/07/25 00:48:02;;;;;;;7.18;3.70;;;;;;;20.86;52.67;98893.69;4486018;31;20103;-73
2022/07/25 00:50:29;;;;;;;3.83;2.90;;;;;;;20.76;52.73;98894.09;4485986;31;20591;-73
2022/07/25 00:52:57;;;;;;;6.05;3.87;;;;;;;20.77;52.72;98900.22;4486101;31;20149;-73
2022/07/25 00:55:24;;;;;;;8.07;3.40;;;;;;;20.73;52.76;98902.47;4485971;31;20157;-73
2022/07/25 00:57:52;;;;;;;5.05;3.30;;;;;;;20.71;52.77;98896.50;4486007;31;20106;-73
2022/07/25 01:00:19;;;;;;;5.12;2.97;;;;;;;20.73;52.70;98899.81;4486009;32;20096;-73
2022/07/25 01:02:47;;;;;;;7.10;3.12;;;;;;;20.78;52.62;98896.56;4486004;31;20100;-73
2022/07/25 01:05:16;;;;;;;4.32;3.65;;;;;;;20.87;52.24;98901.47;4485821;31;20127;-73
2022/07/25 01:07:44;;;;;;;4.25;3.58;;;;;;;20.77;52.51;98897.56;4485833;32;20085;-73
2022/07/25 01:10:11;;;;;;;4.30;3.12;;;;;;;20.73;52.57;98899.81;4486048;31;20438;-73
2022/07/25 01:12:57;;;;;;;3.62;3.08;;;;;;;20.81;52.37;98896.16;4486020;31;20100;-72
2022/07/25 01:15:25;;;;;;;4.70;3.08;;;;;;;20.83;52.29;98892.28;4486096;32;20458;-73
2022/07/25 01:17:52;;;;;;;4.35;2.90;;;;;;;20.76;52.38;98890.59;4485993;31;20434;-73
2022/07/25 01:20:27;;;;;;;4.87;3.22;;;;;;;20.68;52.57;98889.75;4485859;31;20135;-73
2022/07/25 01:22:55;;;;;;;5.93;3.25;;;;;;;20.69;52.50;98894.03;4485667;31;20084;-73
2022/07/25 01:25:23;;;;;;;5.12;3.50;;;;;;;20.55;52.92;98893.16;4485887;31;20081;-73
2022/07/25 01:27:52;;;;;;;6.35;3.28;;;;;;;20.51;53.05;98886.56;4478028;31;254357;-72
2022/07/25 01:30:24;;;;;;;5.07;3.20;;;;;;;20.60;52.84;98889.91;4486027;32;20134;-73
2022/07/25 01:32:51;;;;;;;4.03;3.28;;;;;;;20.55;53.08;98889.69;4485468;31;20459;-73
2022/07/25 01:35:18;;;;;;;7.72;3.33;;;;;;;20.59;52.82;98882.94;4485821;31;20452;-73
2022/07/25 01:37:45;;;;;;;23.30;4.68;;;;;;;20.48;53.11;98883.50;4485735;32;20137;-73
2022/07/25 01:40:13;;;;;;;6.80;3.20;;;;;;;20.48;53.21;98883.50;4485640;32;20152;-73
2022/07/25 01:42:41;;;;;;;5.40;3.08;;;;;;;20.41;53.40;98877.31;4485570;31;20119;-73
2022/07/25 01:45:10;;;;;;;3.95;3.10;;;;;;;20.41;53.38;98879.97;4485585;32;20375;-73
2022/07/25 01:47:37;;;;;;;6.85;3.40;;;;;;;20.26;53.74;98880.97;4484349;32;20114;-73
2022/07/25 01:50:05;;;;;;;5.03;3.20;;;;;;;20.25;53.87;98886.47;4485671;31;20119;-73
2022/07/25 01:52:33;;;;;;;3.65;3.20;;;;;;;20.19;54.06;98880.09;4485284;31;20108;-73
2022/07/25 01:55:00;;;;;;;8.55;3.10;;;;;;;20.11;54.37;98880.28;4485508;31;20151;-73
2022/07/25 01:57:27;;;;;;;4.00;3.08;;;;;;;20.08;54.43;98873.50;4485563;31;20111;-73
2022/07/25 01:59:58;;;;;;;3.83;3.22;;;;;;;20.10;54.38;98878.63;4485569;32;20165;-73
2022/07/25 02:02:25;;;;;;;6.20;3.58;;;;;;;20.04;54.62;98869.56;4485699;32;20181;-73
2022/07/25 02:04:53;;;;;;;3.85;3.12;;;;;;;20.00;54.67;98869.16;4485463;31;20115;-73
2022/07/25 02:07:20;;;;;;;4.68;3.37;;;;;;;20.08;54.51;98870.03;4485548;31;20084;-73
2022/07/25 02:09:47;;;;;;;4.22;3.17;;;;;;;20.09;54.45;98866.31;4485312;31;20173;-73
2022/07/25 02:12:22;;;;;;;3.83;3.12;;;;;;;20.14;54.35;98871.91;4485633;32;20426;-73
2022/07/25 02:14:50;;;;;;;4.50;3.40;;;;;;;20.16;54.17;98868.00;4485772;31;20084;-73
2022/07/25 02:17:18;;;;;;;4.95;3.15;;;;;;;20.02;54.54;98866.31;4485333;31;20104;-73
2022/07/25 02:19:46;;;;;;;5.47;3.30;;;;;;;19.96;54.82;98862.56;4485305;31;20093;-73
2022/07/25 02:22:13;;;;;;;3.80;3.17;;;;;;;19.96;54.79;98870.56;4485124;31;20119;-73
2022/07/25 02:24:40;;;;;;;4.10;3.20;;;;;;;19.95;54.81;98865.44;4485137;31;20093;-73
2022/07/25 02:27:07;;;;;;;4.25;2.92;;;;;;;20.02;54.59;98867.13;4485131;32;20445;-73
2022/07/25 02:29:34;;;;;;;3.67;3.28;;;;;;;19.95;54.68;98866.25;4485415;31;20100;-73
2022/07/25 02:32:02;;;;;;;4.62;3.40;;;;;;;19.92;54.83;98868.47;4485231;31;20147;-73
2022/07/25 02:34:29;;;;;;;5.40;2.95;;;;;;;19.88;55.01;98872.53;4485644;32;20089;-73
2022/07/25 02:36:56;;;;;;;5.40;3.08;;;;;;;19.90;54.96;98879.31;4485338;31;20088;-73
2022/07/25 02:39:24;;;;;;;3.70;3.05;;;;;;;19.80;55.26;98869.03;4485675;31;20149;-73
2022/07/25 02:41:51;;;;;;;10.88;5.25;;;;;;;19.74;55.37;98863.63;4485361;31;20100;-73
2022/07/25 02:44:18;;;;;;;3.70;3.25;;;;;;;19.72;55.48;98868.31;4485072;32;20450;-73
2022/07/25 02:46:45;;;;;;;3.60;2.97;;;;;;;19.74;55.38;98869.75;4485034;32;20088;-73
2022/07/25 02:49:13;;;;;;;5.25;3.10;;;;;;;19.71;55.49;98870.16;4485158;31;20248;-73
2022/07/25 02:51:40;;;;;;;6.57;3.37;;;;;;;19.82;55.19;98871.50;4484975;32;20492;-73
2022/07/25 02:54:07;;;;;;;5.18;2.90;;;;;;;19.79;55.41;98871.91;4485017;31;20108;-73
2022/07/25 02:56:34;;;;;;;4.57;3.42;;;;;;;19.83;55.16;98873.13;4485264;32;20100;-73
2022/07/25 02:59:01;;;;;;;4.15;3.10;;;;;;;19.82;55.19;98876.81;4485110;31;20150;-73
2022/07/25 03:01:29;;;;;;;4.43;3.08;;;;;;;19.76;55.43;98874.91;4485299;31;20599;-73
2022/07/25 03:03:56;;;;;;;4.28;3.05;;;;;;;19.84;55.08;98877.44;4485124;31;20151;-73
2022/07/25 03:06:23;;;;;;;5.07;2.95;;;;;;;19.83;55.14;98881.09;4485050;31;20076;-73
2022/07/25 03:08:51;;;;;;;5.05;2.90;;;;;;;19.73;55.45;98878.75;4485000;31;20085;-73
2022/07/25 03:11:19;;;;;;;5.18;3.10;;;;;;;19.76;55.45;98881.03;4485127;31;20084;-73
2022/07/25 03:13:46;;;;;;;4.80;3.12;;;;;;;19.78;55.41;98880.87;4485051;31;20458;-73
2022/07/25 03:16:13;;;;;;;6.25;3.00;;;;;;;19.76;55.40;98878.38;4485075;32;20115;-73
2022/07/25 03:18:41;;;;;;;4.30;2.80;;;;;;;19.87;55.10;98878.91;4485026;32;20116;-73
2022/07/25 03:21:08;;;;;;;3.00;2.70;;;;;;;19.85;55.07;98885.22;4484866;31;20504;-73
2022/07/25 03:23:35;;;;;;;4.80;3.15;;;;;;;19.79;55.25;98882.53;4484771;31;20494;-73
2022/07/25 03:26:02;;;;;;;4.72;3.35;;;;;;;19.73;55.48;98891.22;4484799;32;20107;-73
2022/07/25 03:28:29;;;;;;;5.85;3.25;;;;;;;19.79;55.36;98887.84;4483564;32;20455;-73
2022/07/25 03:30:57;;;;;;;5.10;3.40;;;;;;;19.80;55.32;98892.12;4484810;31;20101;-73
2022/07/25 03:33:24;;;;;;;3.30;2.87;;;;;;;19.87;55.04;98890.34;4484700;31;20089;-73
2022/07/25 03:35:51;;;;;;;4.10;2.83;;;;;;;19.82;55.27;98888.25;4484838;31;20426;-73
2022/07/25 03:38:18;;;;;;;3.35;2.70;;;;;;;19.79;55.40;98895.81;4483778;32;20488;-73
2022/07/25 03:40:45;;;;;;;7.35;3.03;;;;;;;19.87;55.10;98895.66;4483484;32;20168;-73
2022/07/25 03:43:13;;;;;;;5.00;3.00;;;;;;;20.02;54.76;98892.91;4485096;32;20152;-73
2022/07/25 03:45:40;;;;;;;3.85;3.22;;;;;;;20.15;54.29;98895.63;4484660;31;20133;-73
2022/07/25 03:48:07;;;;;;;5.10;2.95;;;;;;;20.14;54.33;98896.66;4484895;31;20124;-73
2022/07/25 03:50:34;;;;;;;10.55;3.20;;;;;;;20.18;54.33;98889.09;4484443;32;20452;-73
2022/07/25 03:53:02;;;;;;;2.87;2.60;;;;;;;20.26;54.03;98891.59;4484491;32;20084;-73
2022/07/25 03:55:29;;;;;;;4.20;2.72;;;;;;;20.31;54.03;98893.66;4484490;31;20119;-73
2022/07/25 03:57:56;;;;;;;5.87;2.97;;;;;;;20.34;53.96;98895.94;4484480;32;20093;-73
2022/07/25 04:00:23;;;;;;;9.77;4.95;;;;;;;20.45;53.71;98891.88;4484427;31;20169;-73
2022/07/25 04:02:51;;;;;;;9.82;3.40;;;;;;;20.44;53.60;98887.56;4484593;32;20088;-73
2022/07/25 04:05:18;;;;;;;13.52;3.78;;;;;;;20.56;53.35;98883.34;4483138;32;20111;-73
2022/07/25 04:07:45;;;;;;;9.18;3.60;;;;;;;20.59;53.23;98892.75;4484514;32;20100;-73
2022/07/25 04:10:12;;;;;;;4.40;3.30;;;;;;;20.65;53.22;98902.59;4484253;32;20088;-73
2022/07/25 04:12:39;;;;;;;10.77;3.80;;;;;;;20.74;52.87;98902.28;4484366;31;20096;-73
2022/07/25 04:15:07;;;;;;;8.35;3.22;;;;;;;20.88;52.76;98907.66;4482992;32;20712;-73
2022/07/25 04:17:34;;;;;;;8.02;3.15;;;;;;;20.96;52.42;98904.78;4484313;32;20100;-73
2022/07/25 04:20:06;;;;;;;7.57;2.83;;;;;;;20.97;52.32;98905.59;4484061;32;20112;-73
2022/07/25 04:22:34;;;;;;;9.13;3.30;;;;;;;21.12;51.95;98911.59;4483420;31;20096;-73
2022/07/25 04:25:01;;;;;;;5.03;3.00;;;;;;;21.18;51.73;98908.12;4483942;31;20088;-73
2022/07/25 04:27:28;;;;;;;4.87;3.20;;;;;;;21.39;51.08;98909.78;4483967;31;20119;-73
2022/07/25 04:29:56;;;;;;;5.82;3.17;;;;;;;21.42;51.16;98914.72;4484451;32;20180;-73
2022/07/25 04:32:23;;;;;;;7.80;3.17;;;;;;;21.59;50.76;98911.66;4483897;32;20402;-73
2022/07/25 04:34:51;;;;;;;4.90;3.15;;;;;;;21.64;50.63;98911.87;4484041;32;20525;-73
2022/07/25 04:37:18;;;;;;;4.43;3.10;;;;;;;21.67;50.63;98911.47;4484097;31;20100;-73
2022/07/25 04:39:45;;;;;;;10.07;3.53;;;;;;;21.85;50.27;98918.84;4483815;32;20084;-73
2022/07/25 04:42:12;;;;;;;14.27;3.28;;;;;;;22.04;49.58;98917.16;4483899;31;20084;-73
2022/07/25 04:44:40;;;;;;;12.13;3.47;;;;;;;22.06;49.57;98915.12;4483846;31;20110;-73
2022/07/25 04:47:07;;;;;;;3.60;3.15;;;;;;;22.30;49.30;98910.97;4483608;32;20096;-73
2022/07/25 04:49:34;;;;;;;8.05;3.78;;;;;;;22.31;48.63;98912.59;4485408;31;20092;-73
2022/07/25 04:52:01;;;;;;;6.93;2.95;;;;;;;22.26;48.47;98914.25;4485754;32;20151;-73
2022/07/25 04:54:28;;;;;;;3.72;2.92;;;;;;;22.37;48.46;98908.28;4485930;31;20092;-73
2022/07/25 04:56:56;;;;;;;6.00;3.10;;;;;;;22.47;48.28;98908.66;4486127;31;20097;-73
2022/07/25 04:59:23;;;;;;;5.45;3.03;;;;;;;22.49;48.18;98911.13;4485961;31;20092;-73
2022/07/25 05:01:51;;;;;;;9.27;3.15;;;;;;;22.73;47.32;98904.25;4483165;32;20156;-72
2022/07/25 05:04:18;;;;;;;26.12;4.65;;;;;;;22.89;47.09;98910.13;4483195;32;20118;-72
2022/07/25 05:06:45;;;;;;;6.43;2.87;;;;;;;22.98;46.72;98906.16;4482244;32;20177;-73
2022/07/25 05:09:12;;;;;;;6.28;3.08;;;;;;;23.13;46.63;98909.38;4483863;31;20169;-73
2022/07/25 05:11:39;;;;;;;4.07;2.70;;;;;;;23.31;46.05;98910.50;4485012;31;20483;-73
2022/07/25 05:14:14;;;;;;;7.70;2.95;;;;;;;23.47;45.63;98909.19;4484760;32;20099;-73
2022/07/25 05:16:41;;;;;;;3.35;2.90;;;;;;;23.50;45.38;98909.53;4483324;31;20096;-73
2022/07/25 05:19:08;;;;;;;5.20;3.33;;;;;;;23.53;44.97;98909.13;4481914;31;20108;-73
2022/07/25 05:21:37;;;;;;;4.05;2.80;;;;;;;23.53;45.07;98909.13;4482375;32;20197;-73
2022/07/25 05:24:04;;;;;;;4.60;2.87;;;;;;;23.56;44.94;98914.03;4478639;32;20609;-73
2022/07/25 05:26:32;;;;;;;9.63;3.08;;;;;;;23.41;45.14;98908.19;4483160;31;20101;-73
2022/07/25 05:28:59;;;;;;;4.15;3.03;;;;;;;23.36;45.41;98910.66;4470662;31;20096;-73
2022/07/25 05:31:26;;;;;;;4.32;3.12;;;;;;;23.47;44.97;98907.31;4480652;31;20165;-73
2022/07/25 05:33:56;;;;;;;3.87;2.90;;;;;;;23.68;44.81;98913.28;4480200;32;20843;-73
2022/07/25 05:36:25;;;;;;;9.57;3.42;;;;;;;23.70;44.81;98905.88;4466042;32;20170;-73
2022/07/25 05:38:52;;;;;;;6.03;3.10;;;;;;;23.66;45.61;98907.34;4469464;32;20119;-73
2022/07/25 05:41:20;;;;;;;5.37;3.08;;;;;;;23.79;43.92;98909.13;4482094;32;20163;-73
2022/07/25 05:43:47;;;;;;;6.93;2.75;;;;;;;23.88;44.22;98905.16;4484664;31;20568;-73
2022/07/25 05:46:14;;;;;;;4.15;3.20;;;;;;;23.97;45.15;98905.66;4485044;31;20119;-73
2022/07/25 05:48:42;;;;;;;7.35;3.12;;;;;;;23.90;43.82;98898.50;4484385;31;20084;-73
2022/07/25 05:51:11;;;;;;;4.32;3.12;;;;;;;24.08;44.38;98900.41;4483186;31;20139;-73
2022/07/25 05:53:38;;;;;;;3.92;3.22;;;;;;;24.15;43.25;98896.81;4483676;31;20483;-73
2022/07/25 05:56:08;;;;;;;5.93;3.40;;;;;;;24.08;43.21;98894.25;4484675;32;20143;-73
2022/07/25 05:58:39;;;;;;;5.12;3.25;;;;;;;24.10;43.22;98902.84;4480472;32;20124;-73
2022/07/25 06:01:07;;;;;;;3.40;3.00;;;;;;;24.24;43.18;98899.00;4480452;31;20710;-73
2022/07/25 06:03:34;;;;;;;6.57;3.10;;;;;;;24.07;43.49;98904.13;4482650;31;20153;-73
2022/07/25 06:06:02;;;;;;;4.72;2.87;;;;;;;24.01;43.44;98905.03;4483637;31;20191;-73
2022/07/25 06:08:29;;;;;;;6.35;3.22;;;;;;;24.18;43.31;98894.53;4481900;31;20100;-73
2022/07/25 06:10:57;;;;;;;6.97;2.92;;;;;;;24.44;43.34;98897.97;4483100;32;20097;-73
2022/07/25 06:13:26;;;;;;;6.20;3.30;;;;;;;24.62;43.79;98897.97;4481306;32;20175;-73
2022/07/25 06:15:54;;;;;;;6.50;3.28;;;;;;;24.74;42.05;98892.66;4480610;31;20431;-73
2022/07/25 06:18:23;;;;;;;4.72;2.70;;;;;;;24.71;42.56;98903.00;4480609;31;20114;-73
2022/07/25 06:20:50;;;;;;;5.65;3.42;;;;;;;24.79;41.70;98898.16;4481787;31;20168;-73
2022/07/25 06:23:18;;;;;;;13.82;3.58;;;;;;;24.79;41.86;98897.34;4480563;31;20252;-74
2022/07/25 06:25:48;;;;;;;6.85;2.80;;;;;;;24.94;41.93;98900.44;4483539;31;20143;-73
2022/07/25 06:28:16;;;;;;;8.55;3.70;;;;;;;24.86;41.33;98899.91;4484175;31;20144;-73
2022/07/25 06:30:44;;;;;;;6.07;3.05;;;;;;;24.60;41.67;98891.19;4479623;32;20100;-73
2022/07/25 06:33:12;;;;;;;6.43;3.03;;;;;;;24.91;42.41;98886.69;4482730;32;20091;-73
2022/07/25 06:35:39;;;;;;;5.80;3.00;;;;;;;25.01;41.28;98899.50;4484832;31;20108;-74
2022/07/25 06:38:06;;;;;;;8.32;3.33;;;;;;;25.07;40.50;98891.41;4483227;32;20076;-73
2022/07/25 06:40:34;;;;;;;4.12;3.22;;;;;;;25.01;40.99;98897.63;4480735;31;20135;-73
2022/07/25 06:43:01;;;;;;;4.12;2.83;;;;;;;24.89;41.76;98889.59;4481867;32;20100;-73
2022/07/25 06:45:28;;;;;;;3.85;3.00;;;;;;;24.86;41.23;98892.72;4482902;32;20134;-73
2022/07/25 06:47:55;;;;;;;5.47;2.95;;;;;;;25.17;41.31;98887.34;4481321;32;20104;-73
2022/07/25 06:50:22;;;;;;;5.20;2.85;;;;;;;25.33;41.63;98882.16;4481800;32;20553;-73
2022/07/25 06:52:50;;;;;;;4.75;3.10;;;;;;;25.56;41.02;98890.47;4481581;31;20165;-73
2022/07/25 06:55:17;;;;;;;3.72;3.12;;;;;;;25.57;41.40;98890.25;4481295;31;20117;-73
2022/07/25 06:57:45;;;;;;;5.80;2.90;;;;;;;25.59;39.86;98884.62;4481673;31;20092;-73
2022/07/25 07:00:13;;;;;;;5.43;2.83;;;;;;;25.35;40.43;98881.91;4482303;32;20107;-73
2022/07/25 07:02:51;;;;;;;5.87;2.87;;;;;;;25.39;40.24;98875.06;4480933;31;20099;-73
2022/07/25 07:05:19;;;;;;;5.78;3.05;;;;;;;25.35;40.30;98876.56;4482072;31;20143;-74
2022/07/25 07:07:47;;;;;;;7.22;3.20;;;;;;;25.23;40.35;98879.19;4482525;32;20131;-74
2022/07/25 07:10:15;;;;;;;12.25;3.50;;;;;;;25.52;39.98;98871.31;4484437;31;20591;-74
2022/07/25 07:12:43;;;;;;;9.65;3.42;;;;;;;25.60;39.97;98878.19;4483150;31;20103;-73
2022/07/25 07:15:11;;;;;;;4.37;2.83;;;;;;;25.90;40.32;98872.72;4483963;31;20161;-74
2022/07/25 07:17:38;;;;;;;12.25;2.90;;;;;;;25.84;39.54;98881.69;4485254;31;20088;-74
2022/07/25 07:20:07;;;;;;;4.62;2.83;;;;;;;25.93;38.99;98879.50;4482165;31;20522;-74
2022/07/25 07:22:46;;;;;;;6.45;3.78;;;;;;;26.08;40.47;98879.03;4482353;31;20386;-74
2022/07/25 07:25:17;;;;;;;6.53;3.00;;;;;;;26.05;39.71;98879.50;4483340;32;20160;-74
2022/07/25 07:27:46;;;;;;;6.62;2.90;;;;;;;26.00;39.41;98880.22;4482533;31;20114;-74
2022/07/25 07:30:13;;;;;;;6.28;3.10;;;;;;;26.21;39.31;98881.47;4483690;31;20147;-74
2022/07/25 07:32:42;;;;;;;5.87;3.00;;;;;;;26.20;38.75;98880.63;4481539;31;20169;-73
2022/07/25 07:35:11;;;;;;;4.20;3.30;;;;;;;26.10;37.98;98872.41;4480946;32;20546;-74
2022/07/25 07:37:38;;;;;;;5.72;2.65;;;;;;;26.06;39.18;98883.81;4483386;31;20116;-74
2022/07/25 07:40:12;;;;;;;4.55;3.30;;;;;;;26.44;39.49;98874.41;4480500;32;20123;-74
2022/07/25 07:42:45;;;;;;;7.75;2.80;;;;;;;26.18;38.83;98874.69;4482223;32;20088;-74
2022/07/25 07:45:21;;;;;;;4.35;3.10;;;;;;;26.22;39.89;98875.03;4482738;31;20468;-74
2022/07/25 07:47:50;;;;;;;6.37;3.17;;;;;;;26.62;39.08;98874.22;4482596;31;20084;-74
2022/07/25 07:50:23;;;;;;;6.32;3.50;;;;;;;26.70;37.73;98881.94;4480147;32;20121;-74
2022/07/25 07:52:51;;;;;;;5.00;2.95;;;;;;;26.54;37.44;98871.91;4481207;31;20539;-74
2022/07/25 07:58:06;;;;;;;4.35;3.08;;;;;;;26.60;37.78;98870.12;4482240;31;20155;-74
2022/07/25 08:00:38;;;;;;;11.27;3.22;;;;;;;26.69;38.36;98869.56;4477172;32;20169;-74
2022/07/25 08:03:07;;;;;;;5.40;3.00;;;;;;;26.86;37.65;98868.75;4468100;32;20219;-72
2022/07/25 08:05:40;;;;;;;5.90;3.58;;;;;;;27.00;37.39;98870.09;4477775;32;20134;-71
2022/07/25 08:08:10;;;;;;;3.65;3.33;;;;;;;27.00;37.19;98867.41;4483805;31;20096;-70
2022/07/25 08:10:41;;;;;;;6.85;3.42;;;;;;;26.88;37.59;98861.28;4483571;31;20438;-70
2022/07/25 08:13:13;;;;;;;7.50;3.22;;;;;;;27.11;37.11;98864.91;4484468;31;20099;-72
2022/07/25 08:15:41;;;;;;;8.95;3.20;;;;;;;27.40;37.74;98869.19;4484406;31;20116;-72
2022/07/25 08:18:09;;;;;;;7.95;3.08;;;;;;;27.53;37.05;98862.66;4481946;31;20209;-72
2022/07/25 08:20:47;;;;;;;5.75;2.92;;;;;;;27.68;36.51;98864.78;4480167;31;20100;-72
2022/07/25 08:23:15;;;;;;;7.43;3.33;;;;;;;28.08;35.65;98863.72;4479612;32;20164;-72
2022/07/25 08:25:43;;;;;;;7.93;3.22;;;;;;;28.19;35.57;98855.78;4483808;31;20093;-71
2022/07/25 08:28:11;;;;;;;7.60;3.60;;;;;;;28.09;35.17;98853.78;4481919;31;20096;-72
2022/07/25 08:30:39;;;;;;;6.15;3.65;;;;;;;27.85;35.84;98850.47;4482618;32;20100;-71
2022/07/25 08:33:09;;;;;;;5.60;3.10;;;;;;;28.17;34.79;98844.44;4484592;31;20089;-72
2022/07/25 08:35:36;;;;;;;11.12;3.75;;;;;;;28.26;34.15;98848.31;4484815;31;20101;-71
2022/07/25 08:38:04;;;;;;;5.30;3.15;;;;;;;28.01;35.04;98851.50;4483890;32;20088;-71
2022/07/25 08:40:32;;;;;;;8.27;3.50;;;;;;;27.78;36.29;98847.94;4482949;31;20118;-71
2022/07/25 08:43:00;;;;;;;7.32;3.30;;;;;;;27.70;35.86;98848.38;4483576;32;20460;-71
2022/07/25 08:45:27;;;;;;;7.15;4.20;;;;;;;28.06;36.08;98844.31;4484782;32;20128;-71
2022/07/25 08:47:55;;;;;;;5.15;3.60;;;;;;;28.18;35.50;98837.97;4484534;31;20096;-71
2022/07/25 08:50:29;;;;;;;4.97;3.30;;;;;;;28.36;35.37;98844.91;4482996;31;20143;-71
2022/07/25 08:52:56;;;;;;;5.97;3.33;;;;;;;28.60;34.70;98842.78;4483587;32;20104;-72
2022/07/25 08:55:45;;;;;;;5.82;3.35;;;;;;;28.45;35.12;98841.53;4484464;32;20104;-71
2022/07/25 08:58:14;;;;;;;5.32;3.65;;;;;;;28.30;33.64;98839.50;4483438;32;20589;-72
2022/07/25 09:00:44;;;;;;;5.00;3.70;;;;;;;28.37;35.29;98833.09;4485496;32;20103;-72
2022/07/25 09:03:12;;;;;;;4.70;3.70;;;;;;;28.44;34.17;98842.59;4481717;31;20088;-71
2022/07/25 09:05:40;;;;;;;3.72;3.22;;;;;;;28.48;34.00;98840.22;4477756;32;20127;-71
2022/07/25 09:08:16;;;;;;;6.90;3.55;;;;;;;28.42;34.60;98830.44;4482172;31;20150;-71
2022/07/25 09:10:48;;;;;;;8.00;4.37;;;;;;;28.69;34.30;98827.78;4482581;32;20174;-72
2022/07/25 09:13:17;;;;;;;6.37;3.55;;;;;;;28.94;34.21;98834.50;4484401;32;20484;-71
2022/07/25 09:15:52;;;;;;;15.70;3.47;;;;;;;29.11;34.09;98828.97;4481918;31;20105;-71
2022/07/25 09:18:24;;;;;;;10.68;3.60;;;;;;;28.96;33.68;98829.66;4485681;31;20100;-71
2022/07/25 09:21:00;;;;;;;8.38;3.35;;;;;;;29.13;34.64;98824.97;4485854;32;20644;-71
2022/07/25 09:23:35;;;;;;;8.02;3.47;;;;;;;29.27;32.90;98825.38;4480358;32;20159;-72
2022/07/25 09:26:11;;;;;;;8.05;3.70;;;;;;;29.33;32.46;98815.44;4483034;32;20540;-71
2022/07/25 09:28:40;;;;;;;7.07;3.47;;;;;;;29.06;31.98;98818.16;4483927;31;20096;-71
2022/07/25 09:31:08;;;;;;;7.57;3.67;;;;;;;29.05;33.29;98820.03;4475685;32;20447;-71
2022/07/25 09:33:57;;;;;;;5.03;3.35;;;;;;;29.20;32.51;98812.09;4480871;32;20096;-71
2022/07/25 09:36:25;;;;;;;9.98;3.75;;;;;;;29.19;33.22;98810.44;4479882;32;20441;-71
2022/07/25 09:38:56;;;;;;;6.20;3.67;;;;;;;29.43;31.53;98815.47;4476447;32;20097;-72
2022/07/25 09:41:40;;;;;;;7.65;3.45;;;;;;;29.66;32.80;98810.75;4472318;32;20088;-71
2022/07/25 09:44:29;;;;;;;7.37;3.70;;;;;;;30.06;31.69;98806.66;4483378;31;20092;-71
2022/07/25 09:47:00;;;;;;;4.05;3.37;;;;;;;30.19;32.09;98810.75;4483394;32;20475;-71
2022/07/25 09:49:41;;;;;;;4.20;3.45;;;;;;;30.37;31.90;98804.87;4485317;31;20143;-71
2022/07/25 09:52:10;;;;;;;4.50;3.58;;;;;;;30.00;31.71;98792.31;4483234;31;20092;-71
2022/07/25 09:54:38;;;;;;;4.32;3.37;;;;;;;29.78;31.75;98787.09;4483995;32;20408;-71
2022/07/25 09:57:06;;;;;;;3.60;3.30;;;;;;;30.09;31.45;98793.44;4483894;31;20093;-71
2022/07/25 09:59:33;;;;;;;3.75;3.33;;;;;;;30.32;30.83;98796.75;4481316;31;20500;-71
2022/07/25 10:02:11;;;;;;;6.87;4.00;;;;;;;30.67;31.58;98787.09;4477809;32;20093;-72
2022/07/25 10:05:03;;;;;;;5.05;3.12;;;;;;;30.57;31.69;98787.91;4483002;32;20118;-72
2022/07/25 10:07:36;;;;;;;6.78;3.83;;;;;;;30.43;31.32;98789.50;4481803;31;20158;-71
2022/07/25 10:10:04;;;;;;;7.70;3.65;;;;;;;30.14;30.77;98783.72;4483940;32;20091;-71
2022/07/25 10:12:31;;;;;;;3.60;3.20;;;;;;;30.13;30.31;98776.69;4485226;31;20088;-71
2022/07/25 10:15:05;;;;;;;5.03;3.75;;;;;;;30.27;30.63;98773.22;4476357;32;20085;-71
2022/07/25 10:17:34;;;;;;;6.22;3.42;;;;;;;30.05;32.23;98770.75;4484969;32;20131;-71
2022/07/25 10:20:03;;;;;;;5.12;3.37;;;;;;;29.61;31.40;98771.03;4485227;32;20505;-71
2022/07/25 10:22:41;;;;;;;6.28;3.50;;;;;;;29.53;32.35;98769.66;4479940;31;20889;-71
2022/07/25 10:25:25;;;;;;;10.90;3.53;;;;;;;29.73;30.50;98760.03;4483002;32;20088;-71
2022/07/25 10:27:59;;;;;;;10.57;3.40;;;;;;;29.70;30.90;98771.38;4484650;31;20089;-72
2022/07/25 10:30:33;;;;;;;9.07;3.42;;;;;;;29.78;29.68;98754.69;4483080;31;20097;-73
2022/07/25 10:33:12;;;;;;;5.43;3.20;;;;;;;29.73;30.05;98757.34;4481773;32;20131;-72
2022/07/25 10:35:40;;;;;;;4.10;3.00;;;;;;;30.01;29.20;98747.19;4483747;32;20092;-73
2022/07/25 10:38:08;;;;;;;5.10;3.35;;;;;;;30.39;30.67;98747.84;4481949;31;20092;-73
2022/07/25 10:40:41;;;;;;;9.88;3.37;;;;;;;30.60;29.37;98741.41;4483475;31;20141;-73
2022/07/25 10:43:19;;;;;;;7.30;3.00;;;;;;;30.43;28.01;98738.97;4483240;32;20143;-73
2022/07/25 10:45:52;;;;;;;6.15;2.90;;;;;;;30.67;28.32;98741.13;4483949;31;20076;-73
2022/07/25 10:48:24;;;;;;;4.18;3.03;;;;;;;30.67;27.82;98729.53;4482636;32;20437;-73
2022/07/25 10:51:03;;;;;;;9.83;3.40;;;;;;;30.70;27.93;98724.38;4481916;31;20080;-72
2022/07/25 10:53:35;;;;;;;5.43;2.90;;;;;;;30.67;28.47;98733.03;4481707;32;20453;-72
2022/07/25 10:56:26;;;;;;;4.55;3.53;;;;;;;30.84;29.00;98726.53;4484019;31;20461;-73
2022/07/25 10:58:56;;;;;;;7.32;3.17;;;;;;;31.05;27.30;98728.16;4483177;32;20149;-73
2022/07/25 11:01:24;;;;;;;4.62;3.00;;;;;;;31.04;26.80;98720.31;4483324;31;20138;-73
2022/07/25 11:03:54;;;;;;;5.60;3.20;;;;;;;31.13;26.29;98713.28;4483410;31;20097;-73
2022/07/25 11:06:35;;;;;;;5.00;3.20;;;;;;;31.28;26.54;98715.94;4483369;32;20121;-73
2022/07/25 11:09:20;;;;;;;5.40;3.12;;;;;;;31.63;27.15;98706.13;4484032;31;20111;-73
2022/07/25 11:11:56;;;;;;;6.10;3.20;;;;;;;31.33;26.30;98709.72;4484579;31;20080;-73
2022/07/25 11:14:24;;;;;;;5.57;3.05;;;;;;;31.44;26.70;98699.66;4485206;31;20092;-74
2022/07/25 11:16:53;;;;;;;4.05;3.47;;;;;;;31.93;25.11;98693.50;4484733;31;20088;-73
2022/07/25 11:19:23;;;;;;;6.10;3.20;;;;;;;32.27;26.62;98691.97;4484926;31;20093;-73
2022/07/25 11:21:54;;;;;;;3.28;2.80;;;;;;;32.45;24.45;98694.00;4484623;31;20115;-73
2022/07/25 11:24:42;;;;;;;3.67;2.72;;;;;;;31.95;24.26;98691.31;4485169;31;20139;-74
2022/07/25 11:27:12;;;;;;;4.12;2.95;;;;;;;31.89;25.50;98686.22;4484941;31;20076;-74
2022/07/25 11:29:40;;;;;;;5.22;3.12;;;;;;;32.26;25.73;98674.06;4484721;31;20104;-73
2022/07/25 11:32:10;;;;;;;5.37;3.20;;;;;;;32.63;25.40;98687.06;4484834;31;20088;-73
2022/07/25 11:34:51;;;;;;;6.43;3.40;;;;;;;32.33;24.45;98675.37;4484925;31;20156;-72
2022/07/25 11:37:20;;;;;;;4.87;3.20;;;;;;;32.15;25.56;98673.34;4483477;32;20425;-72
2022/07/25 11:39:47;;;;;;;3.87;3.00;;;;;;;32.78;25.09;98671.75;4484978;31;20111;-74
2022/07/25 11:42:16;;;;;;;7.18;3.30;;;;;;;32.71;25.41;98667.50;4484716;31;20092;-74
2022/07/25 11:44:47;;;;;;;6.90;3.40;;;;;;;33.08;23.96;98667.94;4484812;31;20096;-73